createdAt,value
2019-03-03T00:01:01.499Z,32.20
2019-03-03T00:03:29.139Z,32.30
2019-03-03T00:05:59.710Z,32.10
2019-03-03T00:08:27.374Z,32.40
2019-03-03T00:10:54.961Z,32.30
2019-03-03T00:13:22.540Z,32.40
2019-03-03T00:15:50.211Z,32.30
2019-03-03T00:18:17.876Z,32.10
2019-03-03T00:20:45.533Z,32.10
2019-03-03T00:23:13.206Z,32.10
2019-03-03T00:25:40.800Z,32.30
2019-03-03T00:28:08.433Z,32.30
2019-03-03T00:30:36.158Z,32.20
2019-03-03T00:33:03.749Z,32.40
2019-03-03T00:35:31.704Z,32.10
2019-03-03T00:38:12.845Z,32.40
2019-03-03T00:40:42.150Z,32.60
2019-03-03T00:43:27.814Z,32.40
2019-03-03T00:46:02.785Z,32.00
2019-03-03T00:48:32.051Z,32.10
2019-03-03T00:51:07.278Z,32.30
2019-03-03T00:53:39.003Z,32.20
2019-03-03T00:56:08.374Z,32.00
2019-03-03T00:58:37.620Z,32.10
2019-03-03T01:01:15.616Z,32.00
2019-03-03T01:03:53.618Z,32.50
2019-03-03T01:06:25.636Z,32.30
2019-03-03T01:09:12.948Z,32.20
2019-03-03T01:11:42.228Z,32.10
2019-03-03T01:14:11.445Z,31.90
2019-03-03T01:16:49.771Z,32.30
2019-03-03T01:19:33.995Z,32.00
2019-03-03T01:22:12.111Z,31.80
2019-03-03T01:24:50.257Z,31.80
2019-03-03T01:27:17.907Z,31.80
2019-03-03T01:29:45.522Z,31.80
2019-03-03T01:32:13.198Z,31.90
2019-03-03T01:34:40.928Z,31.90
2019-03-03T01:37:08.532Z,31.90
2019-03-03T01:39:36.127Z,31.80
2019-03-03T01:42:03.806Z,31.90
2019-03-03T01:44:31.399Z,31.70
2019-03-03T01:46:58.993Z,31.80
2019-03-03T01:49:26.635Z,31.60
2019-03-03T01:51:54.289Z,31.90
2019-03-03T01:54:22.018Z,31.80
2019-03-03T01:56:49.626Z,31.80
2019-03-03T01:59:17.240Z,32.00
2019-03-03T02:01:44.880Z,31.70
2019-03-03T02:04:12.570Z,31.70
2019-03-03T02:06:40.290Z,31.80
2019-03-03T02:09:09.488Z,31.70
2019-03-03T02:11:37.114Z,31.70
2019-03-03T02:14:04.854Z,32.50
2019-03-03T02:16:32.553Z,31.80
2019-03-03T02:19:00.148Z,31.90
2019-03-03T02:21:27.810Z,31.90
2019-03-03T02:23:55.429Z,31.90
2019-03-03T02:26:23.102Z,31.70
2019-03-03T02:28:50.727Z,31.80
2019-03-03T02:31:18.388Z,31.90
2019-03-03T02:33:46.057Z,31.80
2019-03-03T02:36:13.691Z,31.70
2019-03-03T02:38:41.339Z,31.80
2019-03-03T02:41:08.975Z,31.90
2019-03-03T02:43:40.955Z,31.80
2019-03-03T02:46:08.607Z,31.80
2019-03-03T02:48:36.334Z,31.70
2019-03-03T02:51:04.345Z,31.90
2019-03-03T02:53:31.951Z,31.60
2019-03-03T02:55:59.561Z,31.70
2019-03-03T02:58:27.289Z,31.90
2019-03-03T03:00:56.503Z,31.60
2019-03-03T03:03:25.172Z,31.70
2019-03-03T03:06:03.614Z,31.80
2019-03-03T03:08:38.707Z,32.00
2019-03-03T03:11:08.060Z,31.80
2019-03-03T03:13:43.010Z,32.20
2019-03-03T03:16:15.270Z,31.80
2019-03-03T03:18:44.562Z,32.00
2019-03-03T03:21:16.821Z,32.00
2019-03-03T03:23:55.023Z,31.80
2019-03-03T03:26:33.244Z,31.80
2019-03-03T03:29:14.385Z,31.80
2019-03-03T03:31:46.669Z,31.70
2019-03-03T03:34:27.863Z,32.00
2019-03-03T03:36:57.254Z,31.80
2019-03-03T03:39:42.801Z,32.00
2019-03-03T03:42:14.693Z,32.00
2019-03-03T03:44:53.045Z,32.00
2019-03-03T03:47:31.490Z,31.70
2019-03-03T03:50:00.712Z,32.10
2019-03-03T03:52:29.937Z,31.70
2019-03-03T03:54:59.259Z,32.00
2019-03-03T03:57:28.581Z,31.80
2019-03-03T04:00:03.714Z,32.00
2019-03-03T04:02:38.947Z,31.80
2019-03-03T04:05:11.320Z,31.90
2019-03-03T04:07:43.118Z,32.00
2019-03-03T04:10:18.056Z,31.90
2019-03-03T04:13:02.366Z,32.00
2019-03-03T04:15:40.519Z,32.00
2019-03-03T04:18:12.334Z,32.00
2019-03-03T04:20:44.372Z,31.90
2019-03-03T04:23:22.510Z,32.00
2019-03-03T04:25:51.757Z,32.10
2019-03-03T04:28:23.785Z,31.90
2019-03-03T04:30:55.885Z,32.00
2019-03-03T04:33:25.189Z,32.00
2019-03-03T04:36:06.523Z,32.20
2019-03-03T04:38:53.387Z,32.00
2019-03-03T04:41:22.731Z,31.90
2019-03-03T04:43:58.058Z,32.00
2019-03-03T04:46:27.330Z,32.00
2019-03-03T04:48:56.563Z,32.00
2019-03-03T04:51:28.904Z,32.20
2019-03-03T04:54:09.789Z,32.10
2019-03-03T04:56:39.027Z,32.00
2019-03-03T04:59:17.374Z,32.00
2019-03-03T05:01:55.355Z,32.00
2019-03-03T05:04:30.705Z,31.90
2019-03-03T05:07:02.909Z,32.00
2019-03-03T05:09:50.017Z,31.80
2019-03-03T05:12:19.352Z,32.00
2019-03-03T05:14:46.955Z,32.10
2019-03-03T05:17:28.249Z,32.00
2019-03-03T05:20:00.304Z,32.00
2019-03-03T05:22:27.961Z,32.00
2019-03-03T05:24:55.599Z,32.00
2019-03-03T05:27:23.203Z,31.80
2019-03-03T05:29:50.845Z,32.20
2019-03-03T05:32:18.434Z,32.30
2019-03-03T05:34:46.090Z,32.00
2019-03-03T05:37:13.740Z,31.80
2019-03-03T05:39:41.353Z,32.00
2019-03-03T05:42:09.009Z,31.90
2019-03-03T05:44:36.657Z,32.50
2019-03-03T05:47:04.257Z,32.00
2019-03-03T05:49:31.929Z,32.00
2019-03-03T05:51:59.579Z,31.80
2019-03-03T05:54:27.164Z,32.00
2019-03-03T05:56:54.831Z,32.00
2019-03-03T05:59:22.488Z,32.00
2019-03-03T06:01:50.096Z,32.10
2019-03-03T06:04:17.827Z,32.00
2019-03-03T06:06:45.537Z,31.90
2019-03-03T06:09:13.137Z,32.00
2019-03-03T06:11:40.888Z,32.10
2019-03-03T06:14:08.501Z,32.10
2019-03-03T06:16:36.088Z,32.30
2019-03-03T06:19:03.739Z,31.90
2019-03-03T06:21:31.422Z,32.20
2019-03-03T06:23:59.153Z,31.90
2019-03-03T06:26:26.907Z,32.20
2019-03-03T06:28:54.586Z,32.00
2019-03-03T06:31:22.193Z,32.20
2019-03-03T06:33:49.909Z,32.50
2019-03-03T06:36:17.629Z,32.50
2019-03-03T06:38:45.215Z,32.30
2019-03-03T06:41:12.848Z,32.70
2019-03-03T06:43:40.481Z,32.70
2019-03-03T06:46:08.062Z,32.50
2019-03-03T06:48:35.653Z,32.80
2019-03-03T06:51:03.312Z,32.90
2019-03-03T06:53:30.984Z,32.80
2019-03-03T06:55:58.669Z,32.60
2019-03-03T06:58:26.343Z,33.00
2019-03-03T07:00:54.003Z,32.80
2019-03-03T07:03:21.598Z,31.70
2019-03-03T07:05:49.237Z,31.70
2019-03-03T07:08:16.821Z,31.20
2019-03-03T07:10:44.411Z,31.30
2019-03-03T07:13:12.053Z,31.50
2019-03-03T07:15:39.677Z,34.10
2019-03-03T07:18:07.311Z,34.20
2019-03-03T07:20:34.975Z,35.60
2019-03-03T07:23:02.646Z,37.20
2019-03-03T07:25:30.281Z,35.80
2019-03-03T07:27:57.955Z,34.40
2019-03-03T07:30:25.623Z,34.40
2019-03-03T07:33:03.759Z,34.30
2019-03-03T07:35:31.429Z,34.20
2019-03-03T07:37:59.111Z,33.80
2019-03-03T07:40:26.799Z,33.90
2019-03-03T07:42:54.454Z,33.20
2019-03-03T07:45:22.114Z,33.20
2019-03-03T07:47:49.764Z,32.80
2019-03-03T07:50:17.355Z,33.00
2019-03-03T07:52:45.029Z,32.70
2019-03-03T07:55:12.742Z,33.30
2019-03-03T07:57:40.404Z,34.20
2019-03-03T08:00:09.930Z,34.20
2019-03-03T08:02:37.622Z,34.20
2019-03-03T08:05:06.670Z,34.20
2019-03-03T08:07:34.294Z,35.30
2019-03-03T08:10:01.958Z,39.30
2019-03-03T08:12:29.612Z,37.20
2019-03-03T08:14:57.228Z,36.70
2019-03-03T08:17:24.942Z,36.20
2019-03-03T08:19:52.588Z,36.30
2019-03-03T08:22:20.247Z,35.90
2019-03-03T08:24:47.909Z,35.70
2019-03-03T08:27:15.659Z,35.80
2019-03-03T08:29:43.338Z,35.40
2019-03-03T08:32:10.948Z,35.40
2019-03-03T08:34:38.656Z,35.40
2019-03-03T08:37:06.256Z,35.10
2019-03-03T08:39:33.846Z,35.10
2019-03-03T08:42:03.111Z,35.20
2019-03-03T08:44:41.107Z,35.10
2019-03-03T08:47:10.394Z,34.90
2019-03-03T08:49:42.344Z,35.20
2019-03-03T08:52:14.559Z,34.50
2019-03-03T08:54:49.496Z,34.10
2019-03-03T08:57:21.298Z,34.00
2019-03-03T09:00:08.751Z,34.60
2019-03-03T09:02:38.038Z,34.80
2019-03-03T09:05:25.913Z,34.00
2019-03-03T09:07:57.881Z,34.00
2019-03-03T09:10:30.101Z,34.00
2019-03-03T09:12:59.338Z,34.00
2019-03-03T09:15:37.550Z,34.00
2019-03-03T09:18:18.696Z,34.00
2019-03-03T09:20:53.977Z,33.90
2019-03-03T09:23:23.244Z,33.10
2019-03-03T09:25:52.468Z,32.90
2019-03-03T09:28:38.094Z,32.70
2019-03-03T09:31:10.382Z,32.80
2019-03-03T09:33:42.594Z,32.90
2019-03-03T09:36:17.486Z,32.80
2019-03-03T09:38:55.752Z,32.90
2019-03-03T09:41:40.986Z,32.90
2019-03-03T09:44:26.406Z,33.20
2019-03-03T09:46:58.212Z,33.00
2019-03-03T09:49:33.242Z,32.90
2019-03-03T09:52:05.452Z,33.20
2019-03-03T09:54:34.705Z,33.30
2019-03-03T09:57:19.893Z,33.40
2019-03-03T10:00:07.108Z,33.40
2019-03-03T10:02:36.476Z,33.20
2019-03-03T10:05:06.476Z,34.20
2019-03-03T10:07:44.895Z,34.20
2019-03-03T10:10:30.252Z,34.20
2019-03-03T10:13:05.164Z,34.20
2019-03-03T10:15:37.362Z,34.20
2019-03-03T10:18:12.576Z,34.20
2019-03-03T10:20:41.858Z,34.20
2019-03-03T10:23:11.097Z,34.20
2019-03-03T10:25:56.788Z,34.20
2019-03-03T10:28:26.156Z,34.20
2019-03-03T10:31:01.341Z,34.20
2019-03-03T10:33:46.781Z,34.20
2019-03-03T10:36:18.789Z,34.20
2019-03-03T10:38:50.470Z,34.10
2019-03-03T10:41:28.524Z,34.10
2019-03-03T10:44:00.490Z,33.70
2019-03-03T10:46:32.680Z,32.40
2019-03-03T10:49:01.997Z,32.30
2019-03-03T10:51:33.767Z,32.20
2019-03-03T10:54:03.059Z,31.70
2019-03-03T10:56:32.284Z,31.30
2019-03-03T10:59:04.226Z,31.60
2019-03-03T11:01:33.557Z,31.30
2019-03-03T11:04:05.757Z,31.10
2019-03-03T11:06:39.067Z,31.10
2019-03-03T11:09:24.699Z,31.20
2019-03-03T11:11:53.931Z,31.20
2019-03-03T11:14:25.819Z,31.30
2019-03-03T11:16:55.119Z,31.50
2019-03-03T11:19:24.351Z,31.60
2019-03-03T11:22:08.141Z,32.00
2019-03-03T11:24:37.455Z,32.30
2019-03-03T11:27:21.550Z,32.00
2019-03-03T11:30:07.219Z,33.40
2019-03-03T11:32:52.646Z,33.30
2019-03-03T11:35:30.694Z,33.70
2019-03-03T11:38:08.967Z,33.90
2019-03-03T11:40:40.991Z,33.70
2019-03-03T11:43:25.181Z,33.70
2019-03-03T11:46:00.258Z,33.70
2019-03-03T11:48:35.535Z,33.90
2019-03-03T11:51:07.799Z,33.70
2019-03-03T11:53:42.563Z,33.70
2019-03-03T11:56:20.573Z,33.80
2019-03-03T11:59:01.845Z,33.80
2019-03-03T12:01:39.868Z,33.70
2019-03-03T12:04:11.831Z,33.80
2019-03-03T12:06:43.777Z,33.60
2019-03-03T12:09:21.531Z,33.60
2019-03-03T12:11:53.876Z,33.50
2019-03-03T12:14:38.009Z,33.40
2019-03-03T12:17:19.049Z,33.30
2019-03-03T12:20:00.249Z,33.30
2019-03-03T12:22:44.289Z,33.20
2019-03-03T12:25:16.361Z,33.20
2019-03-03T12:28:01.908Z,33.10
2019-03-03T12:30:34.381Z,33.00
2019-03-03T12:33:12.403Z,32.90
2019-03-03T12:35:47.523Z,32.90
2019-03-03T12:38:31.709Z,33.00
2019-03-03T12:41:09.619Z,32.90
2019-03-03T12:43:38.909Z,32.90
2019-03-03T12:46:16.755Z,32.90
2019-03-03T12:48:51.911Z,32.80
2019-03-03T12:51:24.210Z,32.80
2019-03-03T12:53:56.155Z,32.80
2019-03-03T12:56:27.841Z,32.90
2019-03-03T12:58:57.215Z,32.90
2019-03-03T13:01:44.618Z,32.90
2019-03-03T13:04:16.700Z,32.90
2019-03-03T13:06:45.952Z,32.90
2019-03-03T13:09:15.278Z,33.00
2019-03-03T13:12:02.430Z,32.90
2019-03-03T13:14:31.742Z,33.00
2019-03-03T13:17:01.034Z,33.00
2019-03-03T13:19:45.223Z,33.80
2019-03-03T13:22:30.634Z,34.40
2019-03-03T13:25:02.958Z,34.40
2019-03-03T13:27:38.099Z,34.40
2019-03-03T13:30:14.987Z,34.40
2019-03-03T13:32:46.914Z,34.50
2019-03-03T13:35:16.208Z,35.30
2019-03-03T13:37:57.307Z,39.10
2019-03-03T13:40:43.005Z,39.40
2019-03-03T13:43:10.610Z,43.70
2019-03-03T13:45:38.265Z,42.60
2019-03-03T13:48:05.927Z,42.00
2019-03-03T13:50:33.520Z,42.50
2019-03-03T13:53:01.146Z,43.90
2019-03-03T13:55:28.771Z,43.90
2019-03-03T13:57:57.775Z,42.90
2019-03-03T14:00:25.430Z,41.20
2019-03-03T14:02:53.015Z,40.30
2019-03-03T14:05:21.124Z,40.20
2019-03-03T14:07:48.772Z,40.20
2019-03-03T14:10:16.539Z,39.30
2019-03-03T14:12:44.153Z,38.70
2019-03-03T14:15:18.674Z,38.30
2019-03-03T14:17:46.318Z,38.30
2019-03-03T14:20:15.100Z,38.30
2019-03-03T14:22:43.810Z,38.70
2019-03-03T14:25:11.470Z,39.20
2019-03-03T14:27:39.110Z,39.60
2019-03-03T14:30:08.484Z,40.10
2019-03-03T14:32:36.172Z,40.50
2019-03-03T14:35:03.910Z,39.90
2019-03-03T14:37:31.592Z,39.60
2019-03-03T14:39:59.273Z,39.20
2019-03-03T14:42:26.991Z,38.70
2019-03-03T14:44:54.628Z,38.10
2019-03-03T14:47:22.234Z,37.70
2019-03-03T14:49:49.842Z,37.30
2019-03-03T14:52:17.562Z,37.00
2019-03-03T14:54:45.144Z,36.90
2019-03-03T14:57:12.767Z,36.70
2019-03-03T14:59:40.476Z,36.70
2019-03-03T15:02:08.137Z,36.60
2019-03-03T15:04:35.734Z,36.40
2019-03-03T15:07:03.445Z,36.20
2019-03-03T15:09:31.110Z,36.20
2019-03-03T15:11:58.714Z,36.10
2019-03-03T15:14:26.308Z,35.90
2019-03-03T15:16:53.956Z,35.90
2019-03-03T15:19:21.549Z,35.80
2019-03-03T15:21:49.242Z,35.70
2019-03-03T15:24:16.890Z,35.60
2019-03-03T15:26:44.482Z,35.40
2019-03-03T15:29:12.165Z,35.30
2019-03-03T15:31:39.748Z,35.00
2019-03-03T15:34:07.330Z,34.70
2019-03-03T15:36:34.983Z,34.60
2019-03-03T15:39:02.618Z,34.70
2019-03-03T15:41:30.284Z,34.60
2019-03-03T15:43:57.965Z,34.60
2019-03-03T15:46:26.205Z,34.60
2019-03-03T15:48:53.839Z,34.60
2019-03-03T15:51:21.501Z,34.60
2019-03-03T15:53:49.164Z,34.60
2019-03-03T15:56:16.846Z,34.60
2019-03-03T15:58:44.573Z,34.60
2019-03-03T16:01:13.408Z,44.90
2019-03-03T16:03:41.068Z,39.50
2019-03-03T16:06:08.670Z,39.80
2019-03-03T16:08:36.266Z,41.30
2019-03-03T16:11:03.936Z,40.60
2019-03-03T16:13:31.527Z,40.50
2019-03-03T16:15:59.103Z,40.70
2019-03-03T16:18:26.893Z,40.70
2019-03-03T16:20:54.539Z,40.60
2019-03-03T16:23:22.173Z,40.80
2019-03-03T16:25:49.808Z,40.90
2019-03-03T16:28:17.462Z,42.70
2019-03-03T16:30:45.841Z,47.00
2019-03-03T16:33:20.529Z,52.60
2019-03-03T16:35:42.956Z,59.20
2019-03-03T16:38:10.540Z,63.20
2019-03-03T16:40:39.947Z,63.10
2019-03-03T16:43:07.577Z,66.60
2019-03-03T16:45:35.247Z,69.80
2019-03-03T16:48:02.894Z,86.70
2019-03-03T16:50:30.572Z,72.40
2019-03-03T16:52:58.229Z,61.10
2019-03-03T16:55:25.878Z,58.60
2019-03-03T16:57:53.532Z,56.60
2019-03-03T17:00:21.556Z,53.10
2019-03-03T17:02:49.150Z,52.90
2019-03-03T17:05:18.384Z,50.40
2019-03-03T17:07:46.027Z,47.00
2019-03-03T17:10:13.651Z,45.40
2019-03-03T17:12:41.342Z,44.20
2019-03-03T17:15:10.586Z,41.10
2019-03-03T17:17:38.211Z,41.00
2019-03-03T17:20:07.260Z,40.90
2019-03-03T17:22:34.948Z,40.80
2019-03-03T17:25:02.562Z,40.80
2019-03-03T17:27:30.268Z,40.80
2019-03-03T17:29:57.947Z,40.60
2019-03-03T17:32:25.615Z,40.60
2019-03-03T17:34:53.217Z,40.50
2019-03-03T17:37:20.877Z,40.40
2019-03-03T17:39:48.560Z,40.40
2019-03-03T17:42:16.239Z,39.90
2019-03-03T17:44:43.916Z,39.60
2019-03-03T17:47:11.567Z,39.20
2019-03-03T17:49:39.168Z,39.20
2019-03-03T17:52:06.822Z,42.00
2019-03-03T17:54:34.450Z,40.40
2019-03-03T17:57:02.113Z,40.30
2019-03-03T17:59:29.739Z,40.30
2019-03-03T18:01:57.395Z,39.80
2019-03-03T18:04:25.085Z,39.40
2019-03-03T18:06:52.821Z,38.40
2019-03-03T18:09:20.956Z,39.70
2019-03-03T18:11:48.548Z,38.40
2019-03-03T18:14:16.215Z,38.10
2019-03-03T18:16:43.893Z,37.90
2019-03-03T18:19:11.560Z,38.10
2019-03-03T18:21:39.262Z,37.90
2019-03-03T18:24:06.983Z,38.00
2019-03-03T18:26:34.641Z,38.30
2019-03-03T18:29:03.738Z,38.20
2019-03-03T18:31:32.013Z,38.50
2019-03-03T18:33:59.765Z,38.50
2019-03-03T18:36:27.421Z,38.40
2019-03-03T18:38:55.066Z,38.30
2019-03-03T18:41:22.739Z,38.30
2019-03-03T18:43:50.421Z,38.30
2019-03-03T18:46:18.005Z,38.30
2019-03-03T18:48:45.801Z,38.30
2019-03-03T18:51:13.445Z,38.40
2019-03-03T18:53:41.142Z,38.30
2019-03-03T18:56:08.760Z,38.40
2019-03-03T18:58:36.427Z,38.50
2019-03-03T19:01:05.000Z,38.50
2019-03-03T19:03:33.026Z,38.50
2019-03-03T19:06:00.689Z,38.70
2019-03-03T19:08:30.378Z,38.60
2019-03-03T19:10:57.719Z,38.50
2019-03-03T19:13:25.345Z,38.70
2019-03-03T19:15:53.081Z,38.80
2019-03-03T19:18:20.763Z,38.80
2019-03-03T19:20:48.459Z,38.70
2019-03-03T19:23:16.195Z,38.70
2019-03-03T19:25:43.883Z,38.90
2019-03-03T19:28:11.556Z,38.80
2019-03-03T19:30:39.309Z,38.80
2019-03-03T19:33:08.627Z,38.80
2019-03-03T19:35:36.265Z,38.90
2019-03-03T19:38:03.852Z,38.90
2019-03-03T19:40:31.487Z,38.80
2019-03-03T19:42:59.116Z,38.90
2019-03-03T19:45:34.428Z,39.00
2019-03-03T19:48:02.083Z,38.80
2019-03-03T19:50:29.706Z,39.00
2019-03-03T19:52:57.376Z,38.90
2019-03-03T19:55:25.043Z,38.80
2019-03-03T19:57:52.687Z,38.90
2019-03-03T20:00:35.038Z,38.90
2019-03-03T20:02:57.035Z,38.90
2019-03-03T20:05:24.680Z,38.80
2019-03-03T20:07:52.312Z,38.90
2019-03-03T20:10:19.972Z,38.80
2019-03-03T20:12:47.686Z,38.80
2019-03-03T20:15:15.287Z,38.70
2019-03-03T20:17:46.477Z,38.70
2019-03-03T20:20:15.393Z,38.80
2019-03-03T20:22:43.016Z,38.90
2019-03-03T20:25:11.035Z,38.80
2019-03-03T20:27:38.776Z,38.60
2019-03-03T20:30:08.345Z,38.70
2019-03-03T20:32:36.075Z,38.70
2019-03-03T20:35:04.680Z,38.60
2019-03-03T20:37:32.304Z,38.60
2019-03-03T20:39:59.960Z,38.50
2019-03-03T20:42:27.646Z,38.70
2019-03-03T20:44:55.287Z,38.50
2019-03-03T20:47:23.012Z,38.50
2019-03-03T20:49:50.742Z,38.50
2019-03-03T20:52:18.457Z,38.70
2019-03-03T20:54:46.070Z,38.40
2019-03-03T20:57:13.734Z,38.40
2019-03-03T20:59:41.399Z,38.40
2019-03-03T21:02:09.009Z,38.40
2019-03-03T21:04:36.680Z,38.40
2019-03-03T21:07:04.333Z,38.40
2019-03-03T21:09:31.958Z,38.50
2019-03-03T21:11:59.627Z,38.40
2019-03-03T21:14:27.314Z,38.30
2019-03-03T21:16:54.916Z,38.30
2019-03-03T21:19:22.628Z,38.30
2019-03-03T21:21:50.302Z,38.30
2019-03-03T21:24:17.960Z,38.30
2019-03-03T21:26:45.629Z,38.20
2019-03-03T21:29:13.329Z,38.10
2019-03-03T21:31:40.994Z,38.10
2019-03-03T21:34:08.698Z,38.00
2019-03-03T21:36:36.383Z,37.90
2019-03-03T21:39:05.252Z,38.00
2019-03-03T21:41:32.993Z,38.00
2019-03-03T21:44:01.018Z,37.90
2019-03-03T21:46:28.678Z,37.80
2019-03-03T21:48:56.292Z,37.80
2019-03-03T21:51:23.912Z,37.70
2019-03-03T21:53:51.638Z,37.70
2019-03-03T21:56:19.332Z,37.70
2019-03-03T21:58:47.070Z,37.60
2019-03-03T22:01:14.740Z,37.60
2019-03-03T22:03:42.374Z,37.50
2019-03-03T22:06:10.114Z,37.50
2019-03-03T22:08:37.703Z,37.50
2019-03-03T22:11:07.608Z,37.50
2019-03-03T22:13:35.266Z,37.40
2019-03-03T22:16:02.876Z,37.40
2019-03-03T22:18:30.552Z,37.40
2019-03-03T22:20:58.276Z,37.30
2019-03-03T22:23:25.932Z,37.30
2019-03-03T22:25:53.546Z,37.30
2019-03-03T22:28:21.290Z,37.30
2019-03-03T22:30:48.962Z,37.30
2019-03-03T22:33:16.624Z,37.20
2019-03-03T22:35:44.434Z,37.30
2019-03-03T22:38:12.054Z,37.30
2019-03-03T22:40:39.796Z,37.20
2019-03-03T22:43:07.526Z,37.20
2019-03-03T22:45:35.119Z,37.10
2019-03-03T22:48:02.709Z,37.10
2019-03-03T22:50:30.372Z,37.00
2019-03-03T22:52:58.068Z,37.20
2019-03-03T22:55:25.753Z,37.10
2019-03-03T22:57:53.480Z,37.10
2019-03-03T23:00:24.139Z,37.10
2019-03-03T23:02:51.848Z,37.00
2019-03-03T23:05:23.766Z,37.00
2019-03-03T23:07:53.029Z,37.00
2019-03-03T23:10:25.256Z,37.00
2019-03-03T23:13:03.766Z,37.00
2019-03-03T23:15:52.256Z,36.90
2019-03-03T23:18:27.360Z,36.90
2019-03-03T23:20:56.692Z,36.90
2019-03-03T23:23:28.690Z,36.90
2019-03-03T23:25:58.993Z,37.00
2019-03-03T23:28:26.604Z,36.90
2019-03-03T23:30:54.326Z,36.90
2019-03-03T23:33:22.046Z,36.90
2019-03-03T23:35:49.709Z,36.90
2019-03-03T23:38:17.291Z,36.70
2019-03-03T23:40:45.034Z,36.90
2019-03-03T23:43:12.630Z,37.40
2019-03-03T23:45:40.211Z,37.70
2019-03-03T23:48:07.894Z,37.70
2019-03-03T23:50:35.503Z,37.80
2019-03-03T23:53:03.095Z,37.60
2019-03-03T23:55:30.782Z,37.20
2019-03-03T23:57:58.375Z,36.90
